KRDM/RDM METAR and TAF weather

Enter ICAO airport designator
Station Type Date Time Source
KRDM METAR 2020/04/09 09:56 UTC NOAA

KRDM 090956Z AUTO 17003KT 10SM CLR 00/M04 A3015 RMK AO2 SLP210 T00001044


Station Type Date Time Source
KRDM Decoded METAR 2020/04/09 09:56 UTC NOAA

REDMOND ROBERTS FIELD, OR, United States (KRDM) 44-15N 121-08W
Apr 09, 2020 - 05:56 AM EDT / 2020.04.09 0956 UTC
Wind: from the S (170 degrees) at 3 MPH (3 KT):0
Visibility: 10 mile(s):0
Sky conditions: clear
Temperature: 32.0 F (0.0 C)
Dew Point: 24.1 F (-4.4 C)
Relative Humidity: 72%
Pressure (altimeter): 30.15 in. Hg (1020 hPa)
ob: KRDM 090956Z AUTO 17003KT 10SM CLR 00/M04 A3015 RMK AO2 SLP210 T00001044
cycle: 10

Station Type Date Time Source
KRDM TAF 2020/04/09 06:24 UTC NOAA

TAF KRDM 090520Z 0906/1006 35010KT P6SM SKC

Example: see airport list